createdAt,value
2015-10-26T00:00:37.896Z,1017.7
2015-10-26T00:01:37.649Z,1017.8
2015-10-26T00:02:37.605Z,1017.8
2015-10-26T00:03:37.545Z,1017.7
2015-10-26T00:04:37.486Z,1017.6
2015-10-26T00:05:37.425Z,1017.7
2015-10-26T00:06:37.366Z,1017.6
2015-10-26T00:07:37.305Z,1017.7
2015-10-26T00:08:37.247Z,1017.7
2015-10-26T00:09:37.202Z,1017.8
2015-10-26T00:10:37.141Z,1017.6
2015-10-26T00:11:37.098Z,1017.6
2015-10-26T00:12:37.054Z,1017.7
2015-10-26T00:13:36.979Z,1017.7
2015-10-26T00:14:37.169Z,1017.7
2015-10-26T00:15:36.874Z,1017.7
2015-10-26T00:16:36.815Z,1017.7
2015-10-26T00:17:37.005Z,1017.6
2015-10-26T00:18:36.711Z,1017.6
2015-10-26T00:19:36.652Z,1017.6
2015-10-26T00:20:36.591Z,1017.6
2015-10-26T00:21:36.391Z,1017.6
2015-10-26T00:22:36.504Z,1017.7
2015-10-26T00:23:36.678Z,1017.6
2015-10-26T00:24:36.385Z,1017.6
2015-10-26T00:25:36.340Z,1017.6
2015-10-26T00:26:36.311Z,1017.8
2015-10-26T00:27:36.204Z,1017.6
2015-10-26T00:28:36.177Z,1017.7
2015-10-26T00:29:36.163Z,1017.7
2015-10-26T00:30:36.057Z,1017.6
2015-10-26T00:31:35.997Z,1017.5
2015-10-26T00:32:35.937Z,1017.5
2015-10-26T00:33:35.362Z,1017.5
2015-10-26T00:34:35.832Z,1017.6
2015-10-26T00:35:35.789Z,1017.7
2015-10-26T00:36:35.963Z,1017.6
2015-10-26T00:37:35.667Z,1017.6
2015-10-26T00:38:35.607Z,1017.7
2015-10-26T00:39:35.548Z,1017.7
2015-10-26T00:40:35.503Z,1017.6
2015-10-26T00:41:35.459Z,1017.6
2015-10-26T00:42:35.243Z,1017.5
2015-10-26T00:43:35.355Z,1017.6
2015-10-26T00:44:35.279Z,1017.6
2015-10-26T00:45:35.220Z,1017.5
2015-10-26T00:46:35.176Z,1017.6
2015-10-26T00:47:35.132Z,1017.6
2015-10-26T00:48:35.056Z,1017.6
2015-10-26T00:49:35.012Z,1017.6
2015-10-26T00:50:34.953Z,1017.6
2015-10-26T00:51:34.909Z,1017.5
2015-10-26T00:52:34.849Z,1017.6
2015-10-26T00:53:34.790Z,1017.6
2015-10-26T00:54:34.948Z,1017.7
2015-10-26T00:55:34.700Z,1017.5
2015-10-26T00:56:34.641Z,1017.7
2015-10-26T00:57:34.565Z,1017.5
2015-10-26T00:58:34.521Z,1017.5
2015-10-26T00:59:34.462Z,1017.5
2015-10-26T01:00:34.418Z,1017.5
2015-10-26T01:01:34.404Z,1017.3
2015-10-26T01:02:34.298Z,1017.4
2015-10-26T01:03:34.239Z,1017.4
2015-10-26T01:04:34.194Z,1017.4
2015-10-26T01:05:34.134Z,1017.3
2015-10-26T01:06:34.075Z,1017.4
2015-10-26T01:07:34.031Z,1017.3
2015-10-26T01:08:33.970Z,1017.2
2015-10-26T01:09:33.943Z,1017.2
2015-10-26T01:10:33.101Z,1017.3
2015-10-26T01:11:33.995Z,1017.3
2015-10-26T01:12:33.747Z,1017.2
2015-10-26T01:13:33.688Z,1017.3
2015-10-26T01:14:33.831Z,1017.3
2015-10-26T01:15:32.834Z,1017.4
2015-10-26T01:16:33.540Z,1017.4
2015-10-26T01:17:33.480Z,1017.4
2015-10-26T01:18:33.420Z,1017.3
2015-10-26T01:19:33.360Z,1017.3
2015-10-26T01:20:33.328Z,1017.4
2015-10-26T01:21:33.253Z,1017.2
2015-10-26T01:22:33.209Z,1017.4
2015-10-26T01:23:33.134Z,1017.4
2015-10-26T01:24:33.089Z,1017.3
2015-10-26T01:25:33.031Z,1017.4
2015-10-26T01:26:32.970Z,1017.3
2015-10-26T01:27:32.942Z,1017.3
2015-10-26T01:28:32.882Z,1017.4
2015-10-26T01:29:32.995Z,1017.4
2015-10-26T01:30:32.950Z,1017.5
2015-10-26T01:31:32.719Z,1017.5
2015-10-26T01:32:32.658Z,1017.4
2015-10-26T01:33:32.646Z,1017.4
2015-10-26T01:34:32.539Z,1017.3
2015-10-26T01:35:32.480Z,1017.4
2015-10-26T01:36:32.420Z,1017.4
2015-10-26T01:37:32.391Z,1017.4
2015-10-26T01:38:32.316Z,1017.3
2015-10-26T01:39:32.256Z,1017.3
2015-10-26T01:40:32.212Z,1017.5
2015-10-26T01:41:32.152Z,1017.4
2015-10-26T01:42:32.093Z,1017.4
2015-10-26T01:43:32.032Z,1017.4
2015-10-26T01:44:31.988Z,1017.3
2015-10-26T01:45:31.944Z,1017.4
2015-10-26T01:46:31.869Z,1017.4
2015-10-26T01:47:31.825Z,1017.2
2015-10-26T01:48:31.766Z,1017.3
2015-10-26T01:49:31.705Z,1017.4
2015-10-26T01:50:31.646Z,1017.4
2015-10-26T01:51:31.602Z,1017.3
2015-10-26T01:52:31.558Z,1017.3
2015-10-26T01:53:31.499Z,1017.3
2015-10-26T01:54:31.423Z,1017.3
2015-10-26T01:55:31.582Z,1017.3
2015-10-26T01:56:31.335Z,1017.4
2015-10-26T01:57:31.306Z,1017.4
2015-10-26T01:58:31.215Z,1017.3
2015-10-26T01:59:31.155Z,1017.3
2015-10-26T02:00:30.954Z,1017.3
2015-10-26T02:01:31.051Z,1017.2
2015-10-26T02:02:30.991Z,1017.3
2015-10-26T02:03:30.932Z,1017.3
2015-10-26T02:04:30.887Z,1017.2
2015-10-26T02:05:30.809Z,1017.1
2015-10-26T02:06:30.766Z,1017.1
2015-10-26T02:07:29.971Z,1017.2
2015-10-26T02:08:30.661Z,1017.3
2015-10-26T02:09:30.601Z,1017.1
2015-10-26T02:10:30.543Z,1017.2
2015-10-26T02:11:30.498Z,1017.2
2015-10-26T02:12:30.626Z,1017.1
2015-10-26T02:13:29.628Z,1017.2
2015-10-26T02:14:30.319Z,1017.2
2015-10-26T02:15:30.274Z,1016.9
2015-10-26T02:16:30.418Z,1017.1
2015-10-26T02:17:30.171Z,1017.1
2015-10-26T02:18:31.032Z,1017.1
2015-10-26T02:19:30.051Z,1017.1
2015-10-26T02:20:29.990Z,1017
2015-10-26T02:21:29.931Z,1017
2015-10-26T02:22:29.871Z,1017.1
2015-10-26T02:23:29.829Z,1016.9
2015-10-26T02:24:29.768Z,1017
2015-10-26T02:25:29.708Z,1017
2015-10-26T02:26:29.851Z,1017
2015-10-26T02:27:29.604Z,1017
2015-10-26T02:28:29.544Z,1017
2015-10-26T02:29:29.484Z,1017
2015-10-26T02:30:29.441Z,1017
2015-10-26T02:31:29.365Z,1016.9
2015-10-26T02:32:29.306Z,1016.9
2015-10-26T02:33:29.293Z,1017
2015-10-26T02:34:29.202Z,1016.9
2015-10-26T02:35:29.142Z,1017.1
2015-10-26T02:36:29.082Z,1016.9
2015-10-26T02:37:29.038Z,1017
2015-10-26T02:38:28.994Z,1016.9
2015-10-26T02:39:29.154Z,1016.9
2015-10-26T02:40:28.859Z,1016.9
2015-10-26T02:41:28.815Z,1017
2015-10-26T02:42:28.756Z,1016.8
2015-10-26T02:43:28.695Z,1016.8
2015-10-26T02:44:28.636Z,1016.8
2015-10-26T02:45:28.576Z,1016.8
2015-10-26T02:46:28.547Z,1016.8
2015-10-26T02:47:28.487Z,1016.8
2015-10-26T02:48:28.427Z,1016.8
2015-10-26T02:49:28.239Z,1016.9
2015-10-26T02:50:28.289Z,1016.7
2015-10-26T02:51:28.245Z,1016.8
2015-10-26T02:52:28.186Z,1016.8
2015-10-26T02:53:28.142Z,1016.8
2015-10-26T02:54:28.066Z,1016.7
2015-10-26T02:56:27.978Z,1016.7
2015-10-26T02:57:27.934Z,1016.5
2015-10-26T02:58:28.092Z,1016.7
2015-10-26T02:59:27.800Z,1016.7
2015-10-26T03:00:27.739Z,1016.7
2015-10-26T03:01:27.694Z,1016.6
2015-10-26T03:02:27.635Z,1016.6
2015-10-26T03:03:27.575Z,1016.7
2015-10-26T03:04:27.516Z,1016.6
2015-10-26T03:05:27.487Z,1016.7
2015-10-26T03:06:27.416Z,1016.7
2015-10-26T03:07:27.201Z,1016.7
2015-10-26T03:08:27.313Z,1016.8
2015-10-26T03:09:27.237Z,1016.7
2015-10-26T03:10:27.194Z,1016.7
2015-10-26T03:11:27.133Z,1016.8
2015-10-26T03:12:27.089Z,1016.8
2015-10-26T03:13:27.248Z,1016.6
2015-10-26T03:14:26.954Z,1016.7
2015-10-26T03:15:26.910Z,1016.7
2015-10-26T03:16:26.866Z,1016.7
2015-10-26T03:17:26.791Z,1016.6
2015-10-26T03:18:26.746Z,1016.6
2015-10-26T03:19:26.687Z,1016.7
2015-10-26T03:20:26.643Z,1016.7
2015-10-26T03:21:26.599Z,1016.7
2015-10-26T03:22:26.538Z,1016.7
2015-10-26T03:23:26.464Z,1016.7
2015-10-26T03:24:26.419Z,1016.5
2015-10-26T03:25:26.578Z,1016.8
2015-10-26T03:26:26.299Z,1016.7
2015-10-26T03:27:26.240Z,1016.7
2015-10-26T03:28:26.383Z,1016.8
2015-10-26T03:29:26.324Z,1016.8
2015-10-26T03:30:26.060Z,1016.8
2015-10-26T03:31:26.016Z,1016.7
2015-10-26T03:32:25.973Z,1016.7
2015-10-26T03:33:25.896Z,1016.8
2015-10-26T03:34:25.834Z,1016.8
2015-10-26T03:35:25.996Z,1016.8
2015-10-26T03:36:25.746Z,1016.8
2015-10-26T03:37:25.671Z,1016.8
2015-10-26T03:38:25.627Z,1016.7
2015-10-26T03:39:25.754Z,1016.6
2015-10-26T03:40:25.507Z,1016.8
2015-10-26T03:41:24.698Z,1016.8
2015-10-26T03:42:25.387Z,1016.8
2015-10-26T03:43:25.328Z,1016.8
2015-10-26T03:44:25.284Z,1017
2015-10-26T03:45:25.459Z,1016.9
2015-10-26T03:46:25.165Z,1016.8
2015-10-26T03:47:25.121Z,1016.8
2015-10-26T03:48:25.060Z,1016.8
2015-10-26T03:49:25.001Z,1016.8
2015-10-26T03:50:25.175Z,1016.8
2015-10-26T03:51:24.881Z,1016.8
2015-10-26T03:52:24.837Z,1016.8
2015-10-26T03:53:24.778Z,1016.7
2015-10-26T03:54:24.717Z,1016.8
2015-10-26T03:55:24.689Z,1016.8
2015-10-26T03:56:24.598Z,1016.8
2015-10-26T03:57:24.534Z,1016.8
2015-10-26T03:58:24.690Z,1016.8
2015-10-26T03:59:24.393Z,1016.8
2015-10-26T04:00:24.549Z,1016.8
2015-10-26T04:01:24.237Z,1016.7
2015-10-26T04:02:24.171Z,1016.8
2015-10-26T04:03:24.105Z,1016.7
2015-10-26T04:04:24.038Z,1016.8
2015-10-26T04:05:23.987Z,1016.9
2015-10-26T04:06:23.922Z,1016.8
2015-10-26T04:07:23.859Z,1016.8
2015-10-26T04:08:23.782Z,1016.7
2015-10-26T04:09:23.752Z,1016.7
2015-10-26T04:10:23.690Z,1016.7
2015-10-26T04:11:23.612Z,1016.8
2015-10-26T04:12:23.567Z,1016.8
2015-10-26T04:13:23.506Z,1016.8
2015-10-26T04:14:23.460Z,1016.6
2015-10-26T04:15:23.634Z,1016.8
2015-10-26T04:16:23.338Z,1016.6
2015-10-26T04:17:23.279Z,1016.7
2015-10-26T04:18:23.247Z,1016.7
2015-10-26T04:19:23.156Z,1016.7
2015-10-26T04:20:23.112Z,1016.7
2015-10-26T04:21:23.301Z,1016.6
2015-10-26T04:22:23.023Z,1016.7
2015-10-26T04:23:22.947Z,1016.7
2015-10-26T04:24:22.935Z,1016.7
2015-10-26T04:25:22.312Z,1016.7
2015-10-26T04:26:22.784Z,1016.7
2015-10-26T04:27:22.739Z,1016.7
2015-10-26T04:28:22.664Z,1016.7
2015-10-26T04:29:22.620Z,1016.6
2015-10-26T04:30:22.545Z,1016.8
2015-10-26T04:31:22.500Z,1016.7
2015-10-26T04:32:22.645Z,1016.6
2015-10-26T04:33:22.584Z,1016.6
2015-10-26T04:34:22.181Z,1016.7
2015-10-26T04:35:22.277Z,1016.6
2015-10-26T04:36:22.217Z,1016.6
2015-10-26T04:37:22.173Z,1016.7
2015-10-26T04:38:22.113Z,1016.6
2015-10-26T04:39:22.241Z,1016.5
2015-10-26T04:40:21.994Z,1016.7
2015-10-26T04:41:21.919Z,1016.6
2015-10-26T04:42:21.874Z,1016.6
2015-10-26T04:43:21.815Z,1016.6
2015-10-26T04:44:21.771Z,1016.6
2015-10-26T04:45:21.711Z,1016.5
2015-10-26T04:46:21.651Z,1016.6
2015-10-26T04:47:21.591Z,1016.7
2015-10-26T04:48:21.547Z,1016.5
2015-10-26T04:49:21.488Z,1016.6
2015-10-26T04:50:21.413Z,1016.6
2015-10-26T04:51:21.368Z,1016.6
2015-10-26T04:52:21.308Z,1016.5
2015-10-26T04:53:21.264Z,1016.6
2015-10-26T04:54:21.205Z,1016.5
2015-10-26T04:55:21.129Z,1016.6
2015-10-26T04:56:21.085Z,1016.6
2015-10-26T04:57:21.028Z,1016.7
2015-10-26T04:58:20.984Z,1016.6
2015-10-26T04:59:20.924Z,1016.7
2015-10-26T05:00:21.083Z,1016.6
2015-10-26T05:01:20.805Z,1016.6
2015-10-26T05:02:20.760Z,1016.7
2015-10-26T05:03:20.686Z,1016.5
2015-10-26T05:04:20.641Z,1016.6
2015-10-26T05:05:20.581Z,1016.6
2015-10-26T05:06:20.535Z,1016.5
2015-10-26T05:07:20.474Z,1016.6
2015-10-26T05:08:20.649Z,1016.6
2015-10-26T05:09:20.355Z,1016.6
2015-10-26T05:10:20.296Z,1016.6
2015-10-26T05:11:20.235Z,1016.6
2015-10-26T05:12:20.191Z,1016.7
2015-10-26T05:13:20.132Z,1016.6
2015-10-26T05:14:20.088Z,1016.6
2015-10-26T05:15:20.013Z,1016.5
2015-10-26T05:16:19.968Z,1016.6
2015-10-26T05:17:19.924Z,1016.6
2015-10-26T05:18:19.863Z,1016.7
2015-10-26T05:19:19.804Z,1016.7
2015-10-26T05:20:19.744Z,1016.7
2015-10-26T05:21:19.701Z,1016.6
2015-10-26T05:22:19.657Z,1016.6
2015-10-26T05:23:19.581Z,1016.7
2015-10-26T05:24:19.521Z,1016.6
2015-10-26T05:25:19.462Z,1016.6
2015-10-26T05:26:19.402Z,1016.6
2015-10-26T05:27:19.357Z,1016.6
2015-10-26T05:28:19.485Z,1016.6
2015-10-26T05:29:19.237Z,1016.6
2015-10-26T05:30:19.179Z,1016.5
2015-10-26T05:31:19.135Z,1016.7
2015-10-26T05:32:19.074Z,1016.7
2015-10-26T05:33:19.015Z,1016.8
2015-10-26T05:34:18.955Z,1016.6
2015-10-26T05:35:18.895Z,1016.6
2015-10-26T05:36:18.851Z,1016.7
2015-10-26T05:37:18.807Z,1016.7
2015-10-26T05:38:18.763Z,1016.6
2015-10-26T05:39:18.688Z,1016.6
2015-10-26T05:40:18.816Z,1016.5
2015-10-26T05:41:18.568Z,1016.7
2015-10-26T05:42:18.524Z,1016.5
2015-10-26T05:43:18.464Z,1016.7
2015-10-26T05:44:18.404Z,1016.7
2015-10-26T05:45:18.360Z,1016.7
2015-10-26T05:46:18.300Z,1016.6
2015-10-26T05:47:18.240Z,1016.8
2015-10-26T05:48:18.181Z,1016.6
2015-10-26T05:49:18.137Z,1016.7
2015-10-26T05:50:18.074Z,1016.7
2015-10-26T05:51:18.030Z,1016.7
2015-10-26T05:52:17.955Z,1016.6
2015-10-26T05:53:17.911Z,1016.7
2015-10-26T05:54:17.851Z,1016.7
2015-10-26T05:55:17.806Z,1016.7
2015-10-26T05:56:17.731Z,1016.6
2015-10-26T05:57:17.687Z,1016.7
2015-10-26T05:58:17.628Z,1016.6
2015-10-26T05:59:17.583Z,1016.6
2015-10-26T06:00:17.509Z,1016.7
2015-10-26T06:01:17.464Z,1016.6
2015-10-26T06:02:17.404Z,1016.6
2015-10-26T06:03:17.344Z,1016.6
2015-10-26T06:04:17.300Z,1016.6
2015-10-26T06:05:17.225Z,1016.6
2015-10-26T06:06:17.180Z,1016.7
2015-10-26T06:07:17.136Z,1016.6
2015-10-26T06:08:17.077Z,1016.6
2015-10-26T06:09:17.220Z,1016.8
2015-10-26T06:10:16.958Z,1016.7
2015-10-26T06:11:16.914Z,1016.6
2015-10-26T06:12:16.869Z,1016.7
2015-10-26T06:13:16.809Z,1016.7
2015-10-26T06:14:16.750Z,1016.7
2015-10-26T06:15:16.706Z,1016.6
2015-10-26T06:16:16.630Z,1016.6
2015-10-26T06:17:16.586Z,1016.6
2015-10-26T06:18:16.511Z,1016.6
2015-10-26T06:19:16.482Z,1016.7
2015-10-26T06:20:16.406Z,1016.7
2015-10-26T06:21:16.364Z,1016.6
2015-10-26T06:22:16.319Z,1016.6
2015-10-26T06:23:16.259Z,1016.6
2015-10-26T06:24:16.200Z,1016.6
2015-10-26T06:25:16.124Z,1016.7
2015-10-26T06:26:16.095Z,1016.8
2015-10-26T06:27:16.036Z,1016.7
2015-10-26T06:28:15.960Z,1016.7
2015-10-26T06:29:15.916Z,1016.7
2015-10-26T06:30:15.856Z,1016.7
2015-10-26T06:31:15.797Z,1016.8
2015-10-26T06:32:15.752Z,1016.8
2015-10-26T06:33:15.692Z,1016.8
2015-10-26T06:34:15.633Z,1017
2015-10-26T06:35:15.570Z,1016.7
2015-10-26T06:36:15.526Z,1016.8
2015-10-26T06:37:15.482Z,1016.8
2015-10-26T06:38:15.407Z,1016.8
2015-10-26T06:39:15.378Z,1016.7
2015-10-26T06:40:15.302Z,1016.9
2015-10-26T06:41:15.227Z,1016.7
2015-10-26T06:42:15.182Z,1016.8
2015-10-26T06:43:15.139Z,1016.7
2015-10-26T06:44:15.094Z,1016.7
2015-10-26T06:45:15.222Z,1016.8
2015-10-26T06:46:15.209Z,1016.8
2015-10-26T06:47:14.932Z,1016.8
2015-10-26T06:48:14.871Z,1016.8
2015-10-26T06:49:14.813Z,1016.7
2015-10-26T06:50:14.752Z,1016.8
2015-10-26T06:51:14.693Z,1016.8
2015-10-26T06:52:14.648Z,1016.8
2015-10-26T06:53:14.588Z,1016.8
2015-10-26T06:54:14.529Z,1016.8
2015-10-26T06:55:14.485Z,1016.8
2015-10-26T06:56:14.424Z,1016.8
2015-10-26T06:57:14.372Z,1016.9
2015-10-26T06:58:14.297Z,1016.9
2015-10-26T06:59:14.236Z,1016.8
2015-10-26T07:00:14.192Z,1016.8
2015-10-26T07:01:14.133Z,1016.9
2015-10-26T07:02:14.089Z,1016.8
2015-10-26T07:03:14.029Z,1016.9
2015-10-26T07:04:14.172Z,1016.8
2015-10-26T07:05:13.925Z,1016.9
2015-10-26T07:06:13.865Z,1016.8
2015-10-26T07:07:13.789Z,1016.9
2015-10-26T07:08:13.761Z,1016.8
2015-10-26T07:09:13.686Z,1017
2015-10-26T07:10:13.642Z,1016.8
2015-10-26T07:11:23.316Z,1016.8
2015-10-26T07:12:13.522Z,1016.9
2015-10-26T07:13:28.994Z,1016.9
2015-10-26T07:14:13.419Z,1016.9
2015-10-26T07:15:13.375Z,1016.9
2015-10-26T07:16:13.502Z,1017
2015-10-26T07:17:13.254Z,1017
2015-10-26T07:18:13.429Z,1016.9
2015-10-26T07:19:13.369Z,1016.9
2015-10-26T07:20:13.419Z,1016.8
2015-10-26T07:21:27.155Z,1016.9
2015-10-26T07:22:12.968Z,1017
2015-10-26T07:23:12.925Z,1016.9
2015-10-26T07:24:12.849Z,1017
2015-10-26T07:25:12.789Z,1016.9
2015-10-26T07:26:11.995Z,1016.9
2015-10-26T07:27:12.685Z,1016.8
2015-10-26T07:28:12.641Z,1016.9
2015-10-26T07:29:12.582Z,1016.8
2015-10-26T07:30:12.522Z,1016.9
2015-10-26T07:31:12.462Z,1016.9
2015-10-26T07:32:12.418Z,1016.9
2015-10-26T07:33:12.374Z,1016.8
2015-10-26T07:34:12.299Z,1016.8
2015-10-26T07:35:11.692Z,1016.9
2015-10-26T07:36:12.194Z,1016.8
2015-10-26T07:37:11.401Z,1016.9
2015-10-26T07:38:12.075Z,1016.8
2015-10-26T07:39:12.031Z,1016.8
2015-10-26T07:40:11.971Z,1016.9
2015-10-26T07:41:11.927Z,1016.9
2015-10-26T07:42:12.102Z,1016.8
2015-10-26T07:43:11.807Z,1016.7
2015-10-26T07:44:11.763Z,1016.8
2015-10-26T07:45:11.704Z,1016.8
2015-10-26T07:46:11.644Z,1016.7
2015-10-26T07:47:11.585Z,1016.8
2015-10-26T07:48:11.556Z,1016.8
2015-10-26T07:49:11.512Z,1016.8
2015-10-26T07:50:11.436Z,1016.8
2015-10-26T07:51:11.376Z,1016.7
2015-10-26T07:52:11.332Z,1016.8
2015-10-26T07:53:11.273Z,1016.7
2015-10-26T07:54:11.213Z,1016.7
2015-10-26T07:55:11.154Z,1016.6
2015-10-26T07:56:11.109Z,1016.7
2015-10-26T07:57:11.065Z,1016.6
2015-10-26T07:58:11.004Z,1016.7
2015-10-26T07:59:11.178Z,1016.7
2015-10-26T08:00:10.885Z,1016.7
2015-10-26T08:01:10.841Z,1016.7
2015-10-26T08:02:10.031Z,1016.7
2015-10-26T08:03:10.737Z,1016.6
2015-10-26T08:04:10.661Z,1016.8
2015-10-26T08:05:10.820Z,1016.7
2015-10-26T08:06:10.557Z,1016.8
2015-10-26T08:07:10.514Z,1016.8
2015-10-26T08:08:10.453Z,1016.7
2015-10-26T08:09:10.409Z,1016.6
2015-10-26T08:10:10.334Z,1016.7
2015-10-26T08:11:10.305Z,1016.6
2015-10-26T08:12:10.230Z,1016.5
2015-10-26T08:13:10.373Z,1016.6
2015-10-26T08:14:10.126Z,1016.6
2015-10-26T08:15:10.082Z,1016.7
2015-10-26T08:16:10.021Z,1016.8
2015-10-26T08:17:09.962Z,1016.6
2015-10-26T08:18:09.902Z,1016.7
2015-10-26T08:19:09.858Z,1016.6
2015-10-26T08:20:09.049Z,1016.6
2015-10-26T08:21:09.755Z,1016.7
2015-10-26T08:22:09.694Z,1016.7
2015-10-26T08:23:09.635Z,1016.8
2015-10-26T08:24:09.591Z,1016.8
2015-10-26T08:25:09.562Z,1016.7
2015-10-26T08:26:09.705Z,1016.6
2015-10-26T08:27:09.412Z,1016.8
2015-10-26T08:28:09.367Z,1016.7
2015-10-26T08:29:09.308Z,1016.8
2015-10-26T08:30:09.248Z,1016.8
2015-10-26T08:31:09.203Z,1016.8
2015-10-26T08:32:09.143Z,1016.8
2015-10-26T08:33:09.099Z,1016.8
2015-10-26T08:34:09.024Z,1016.8
2015-10-26T08:35:08.980Z,1016.8
2015-10-26T08:36:08.934Z,1016.7
2015-10-26T08:37:08.857Z,1016.8
2015-10-26T08:38:08.813Z,1016.9
2015-10-26T08:39:08.770Z,1016.8
2015-10-26T08:40:08.710Z,1016.7
2015-10-26T08:41:08.650Z,1016.8
2015-10-26T08:42:08.590Z,1016.8
2015-10-26T08:43:08.546Z,1016.9
2015-10-26T08:44:08.487Z,1016.8
2015-10-26T08:45:08.426Z,1016.8
2015-10-26T08:46:08.382Z,1016.7
2015-10-26T08:47:08.323Z,1016.8
2015-10-26T08:48:08.337Z,1016.7
2015-10-26T08:49:08.298Z,1016.8
2015-10-26T08:51:08.564Z,1016.8
2015-10-26T08:52:08.192Z,1016.7
2015-10-26T08:53:07.991Z,1016.8
2015-10-26T08:54:07.994Z,1016.7
2015-10-26T08:55:07.997Z,1016.8
2015-10-26T08:56:07.860Z,1016.6
2015-10-26T08:57:07.612Z,1016.6
2015-10-26T08:58:07.724Z,1016.6
2015-10-26T08:59:07.665Z,1016.7
2015-10-26T09:00:07.620Z,1016.5
2015-10-26T09:01:07.546Z,1016.7
2015-10-26T09:02:07.501Z,1016.6
2015-10-26T09:03:07.471Z,1016.6
2015-10-26T09:04:06.646Z,1016.7
2015-10-26T09:05:07.352Z,1016.6
2015-10-26T09:06:07.341Z,1016.6
2015-10-26T09:07:07.232Z,1016.5
2015-10-26T09:08:07.189Z,1016.4
2015-10-26T09:09:07.145Z,1016.4
2015-10-26T09:10:07.070Z,1016.4
2015-10-26T09:11:07.026Z,1016.6
2015-10-26T09:12:06.996Z,1016.5
2015-10-26T09:13:06.921Z,1016.5
2015-10-26T09:14:06.862Z,1016.5
2015-10-26T09:15:06.818Z,1016.4
2015-10-26T09:16:06.743Z,1016.4
2015-10-26T09:17:06.698Z,1016.5
2015-10-26T09:18:06.635Z,1016.6
2015-10-26T09:19:06.782Z,1016.6
2015-10-26T09:20:06.516Z,1016.5
2015-10-26T09:21:06.503Z,1016.5
2015-10-26T09:22:06.412Z,1016.4
2015-10-26T09:23:06.367Z,1016.6
2015-10-26T09:24:06.309Z,1016.5
2015-10-26T09:25:06.279Z,1016.5
2015-10-26T09:26:06.204Z,1016.4
2015-10-26T09:27:06.145Z,1016.5
2015-10-26T09:28:06.101Z,1016.5
2015-10-26T09:29:06.040Z,1016.5
2015-10-26T09:30:05.997Z,1016.5
2015-10-26T09:31:05.937Z,1016.5
2015-10-26T09:32:05.877Z,1016.5
2015-10-26T09:33:05.834Z,1016.4
2015-10-26T09:34:05.773Z,1016.3
2015-10-26T09:35:05.729Z,1016.5
2015-10-26T09:36:05.670Z,1016.4
2015-10-26T09:37:05.609Z,1016.4
2015-10-26T09:38:05.565Z,1016.3
2015-10-26T09:39:05.506Z,1016.4
2015-10-26T09:40:05.446Z,1016.4
2015-10-26T09:41:05.386Z,1016.5
2015-10-26T09:42:05.342Z,1016.4
2015-10-26T09:43:05.298Z,1016.4
2015-10-26T09:44:05.082Z,1016.4
2015-10-26T09:45:05.179Z,1016.4
2015-10-26T09:46:05.134Z,1016.5
2015-10-26T09:47:04.340Z,1016.5
2015-10-26T09:48:05.015Z,1016.5
2015-10-26T09:49:04.970Z,1016.5
2015-10-26T09:50:04.927Z,1016.5
2015-10-26T09:51:04.883Z,1016.5
2015-10-26T09:52:04.808Z,1016.5
2015-10-26T09:53:04.747Z,1016.5
2015-10-26T09:54:04.704Z,1016.5
2015-10-26T09:55:04.644Z,1016.6
2015-10-26T09:56:04.584Z,1016.5
2015-10-26T09:57:04.524Z,1016.4
2015-10-26T09:58:04.480Z,1016.5
2015-10-26T09:59:04.280Z,1016.3
2015-10-26T10:00:04.376Z,1016.4
2015-10-26T10:01:04.317Z,1016.5
2015-10-26T10:02:04.288Z,1016.3
2015-10-26T10:03:04.243Z,1016.4
2015-10-26T10:04:04.402Z,1016.3
2015-10-26T10:05:04.105Z,1016.5
2015-10-26T10:06:04.061Z,1016.4
2015-10-26T10:07:04.017Z,1016.3
2015-10-26T10:08:03.207Z,1016.3
2015-10-26T10:09:03.897Z,1016.4
2015-10-26T10:10:03.839Z,1016.4
2015-10-26T10:11:03.794Z,1016.4
2015-10-26T10:12:03.749Z,1016.3
2015-10-26T10:13:03.691Z,1016.3
2015-10-26T10:14:03.615Z,1016.3
2015-10-26T10:15:03.571Z,1016.3
2015-10-26T10:16:03.511Z,1016.2
2015-10-26T10:17:03.452Z,1016.2
2015-10-26T10:18:03.407Z,1016.3
2015-10-26T10:19:03.379Z,1016.3
2015-10-26T10:20:03.491Z,1016.3
2015-10-26T10:21:03.244Z,1016.2
2015-10-26T10:22:03.200Z,1016.2
2015-10-26T10:23:03.155Z,1016.2
2015-10-26T10:24:03.096Z,1016.1
2015-10-26T10:25:03.035Z,1016.1
2015-10-26T10:26:02.976Z,1016.1
2015-10-26T10:27:02.932Z,1016.1
2015-10-26T10:28:02.872Z,1016.1
2015-10-26T10:29:03.015Z,1016.2
2015-10-26T10:30:02.769Z,1016.2
2015-10-26T10:31:02.708Z,1016
2015-10-26T10:32:02.665Z,1016
2015-10-26T10:33:02.605Z,1016.1
2015-10-26T10:34:02.549Z,1016.2
2015-10-26T10:35:02.506Z,1016.1
2015-10-26T10:36:02.446Z,1016
2015-10-26T10:37:02.386Z,1016
2015-10-26T10:38:02.327Z,1016.1
2015-10-26T10:39:02.282Z,1016.1
2015-10-26T10:40:02.238Z,1016
2015-10-26T10:41:02.162Z,1016.1
2015-10-26T10:42:02.134Z,1016.1
2015-10-26T10:43:02.262Z,1016
2015-10-26T10:44:02.014Z,1016.1
2015-10-26T10:45:01.954Z,1016
2015-10-26T10:46:01.926Z,1016.1
2015-10-26T10:47:01.867Z,1016
2015-10-26T10:48:01.792Z,1016
2015-10-26T10:49:01.747Z,1016.1
2015-10-26T10:50:01.687Z,1016.2
2015-10-26T10:51:01.878Z,1016
2015-10-26T10:52:01.581Z,1016.2
2015-10-26T10:53:01.520Z,1016
2015-10-26T10:54:01.477Z,1016.1
2015-10-26T10:55:01.417Z,1016
2015-10-26T10:56:01.373Z,1016.1
2015-10-26T10:57:01.156Z,1016
2015-10-26T10:58:00.363Z,1016
2015-10-26T10:59:01.216Z,1015.9
2015-10-26T11:00:01.391Z,1015.9
2015-10-26T11:01:01.097Z,1016
2015-10-26T11:02:01.036Z,1015.8
2015-10-26T11:03:00.993Z,1015.8
2015-10-26T11:04:01.136Z,1015.9
2015-10-26T11:05:00.888Z,1015.9
2015-10-26T11:06:00.829Z,1015.8
2015-10-26T11:07:00.769Z,1015.8
2015-10-26T11:08:00.725Z,1016
2015-10-26T11:09:00.899Z,1015.8
2015-10-26T11:10:00.621Z,1015.9
2015-10-26T11:11:00.577Z,1015.8
2015-10-26T11:12:00.501Z,1015.9
2015-10-26T11:13:00.691Z,1015.9
2015-10-26T11:14:00.413Z,1015.9
2015-10-26T11:15:00.353Z,1015.9
2015-10-26T11:16:00.294Z,1015.8
2015-10-26T11:17:00.235Z,1015.8
2015-10-26T11:18:00.221Z,1015.8
2015-10-26T11:19:00.129Z,1015.8
2015-10-26T11:20:00.071Z,1015.8
2015-10-26T11:21:00.057Z,1015.9
2015-10-26T11:21:59.966Z,1015.7
2015-10-26T11:22:59.938Z,1015.7
2015-10-26T11:23:59.879Z,1015.8
2015-10-26T11:24:59.819Z,1015.7
2015-10-26T11:25:59.821Z,1015.8
2015-10-26T11:26:59.715Z,1015.7
2015-10-26T11:27:59.670Z,1015.8
2015-10-26T11:28:59.845Z,1015.8
2015-10-26T11:29:59.737Z,1015.7
2015-10-26T11:30:59.490Z,1015.8
2015-10-26T11:31:59.448Z,1015.7
2015-10-26T11:32:59.621Z,1015.6
2015-10-26T11:33:59.328Z,1015.6
2015-10-26T11:34:59.284Z,1015.7
2015-10-26T11:35:59.224Z,1015.6
2015-10-26T11:36:59.179Z,1015.7
2015-10-26T11:37:59.135Z,1015.7
2015-10-26T11:38:59.092Z,1015.7
2015-10-26T11:39:59.015Z,1015.7
2015-10-26T11:40:58.972Z,1015.7
2015-10-26T11:41:58.911Z,1015.7
2015-10-26T11:42:58.867Z,1015.6
2015-10-26T11:43:58.823Z,1015.6
2015-10-26T11:44:58.748Z,1015.5
2015-10-26T11:45:58.736Z,1015.6
2015-10-26T11:46:58.660Z,1015.4
2015-10-26T11:47:58.598Z,1015.5
2015-10-26T11:48:58.553Z,1015.4
2015-10-26T11:49:58.477Z,1015.4
2015-10-26T11:50:58.434Z,1015.4
2015-10-26T11:51:58.389Z,1015.5
2015-10-26T11:52:58.330Z,1015.4
2015-10-26T11:53:58.285Z,1015.4
2015-10-26T11:54:58.210Z,1015.3
2015-10-26T11:55:58.166Z,1015.5
2015-10-26T11:56:58.122Z,1015.3
2015-10-26T11:57:58.077Z,1015.4
2015-10-26T11:58:58.033Z,1015.3
2015-10-26T11:59:57.958Z,1015.4
2015-10-26T12:00:57.164Z,1015.3
2015-10-26T12:01:57.838Z,1015.2
2015-10-26T12:02:57.794Z,1015.1
2015-10-26T12:03:57.766Z,1015.3
2015-10-26T12:04:57.690Z,1015.4
2015-10-26T12:05:57.646Z,1015.3
2015-10-26T12:06:57.774Z,1015.2
2015-10-26T12:07:57.777Z,1015.1
2015-10-26T12:08:57.498Z,1015.1
2015-10-26T12:09:57.423Z,1015.2
2015-10-26T12:10:57.379Z,1015.3
2015-10-26T12:11:57.318Z,1015.2
2015-10-26T12:12:57.462Z,1015.2
2015-10-26T12:13:56.496Z,1015.3
2015-10-26T12:14:57.405Z,1015
2015-10-26T12:15:57.126Z,1015.1
2015-10-26T12:16:57.068Z,1015
2015-10-26T12:17:57.007Z,1015
2015-10-26T12:18:56.963Z,1014.9
2015-10-26T12:19:57.154Z,1015.1
2015-10-26T12:20:56.859Z,1015
2015-10-26T12:21:56.799Z,1014.9
2015-10-26T12:22:56.740Z,1014.9
2015-10-26T12:23:56.695Z,1014.7
2015-10-26T12:24:56.651Z,1014.8
2015-10-26T12:25:56.607Z,1015
2015-10-26T12:26:56.548Z,1014.9
2015-10-26T12:27:56.488Z,1014.9
2015-10-26T12:28:56.443Z,1015
2015-10-26T12:29:56.414Z,1015
2015-10-26T12:30:56.339Z,1015
2015-10-26T12:31:56.295Z,1014.9
2015-10-26T12:32:56.237Z,1015